Time;durP1;ratioP1;P1;durP2;ratioP2;P2;SDS_P1;SDS_P2;PMS_P1;PMS_P2;Temp;Humidity;BMP_temperature;BMP_pressure;BME280_temperature;BME280_humidity;BME280_pressure;Samples;Min_cycle;Max_cycle;Signal;HPM_P1;HPM_P2
2021/08/19 00:01:34;;;;;;;;;;;;;;;15.88;59.82;99601.51;126656;1087;102895;-78
2021/08/19 00:04:23;;;;;;;;;;;;;;;15.90;60.13;99600.46;126833;1089;102859;-79
2021/08/19 00:07:13;;;;;;;;;;;;;;;15.94;60.03;99593.21;126769;1087;103022;-79
2021/08/19 00:10:02;;;;;;;;;;;;;;;15.96;60.11;99599.22;126908;1090;102998;-78
2021/08/19 00:12:50;;;;;;;;;;;;;;;15.98;60.32;99599.98;126730;1087;102911;-78
2021/08/19 00:15:38;;;;;;;;;;;;;;;15.97;60.37;99607.00;126850;1087;103355;-78
2021/08/19 00:18:25;;;;;;;;;;;;;;;15.98;60.54;99597.36;126768;1090;102927;-78
2021/08/19 00:21:12;;;;;;;;;;;;;;;15.97;60.68;99606.16;126844;1087;101917;-78
2021/08/19 00:24:00;;;;;;;;;;;;;;;15.97;60.59;99600.90;126868;1089;102950;-78
2021/08/19 00:26:48;;;;;;;;;;;;;;;15.97;60.90;99606.16;126737;1087;103073;-78
2021/08/19 00:29:35;;;;;;;;;;;;;;;15.98;60.97;99592.94;126815;1089;102893;-78
2021/08/19 00:32:23;;;;;;;;;;;;;;;16.00;61.09;99593.68;126804;1089;102849;-78
2021/08/19 00:35:11;;;;;;;;;;;;;;;16.01;61.53;99597.16;126881;1087;102951;-79
2021/08/19 00:37:58;;;;;;;;;;;;;;;16.00;61.07;99587.58;126766;1089;102959;-79
2021/08/19 00:40:46;;;;;;;;;;;;;;;15.98;61.50;99597.36;126878;1088;102645;-79
2021/08/19 00:43:34;;;;;;;;;;;;;;;15.96;61.63;99593.95;126768;1087;102891;-79
2021/08/19 00:46:29;;;;;;;;;;;;;;;15.94;61.97;99585.32;126836;1087;102860;-79
2021/08/19 00:49:17;;;;;;;;;;;;;;;15.93;61.96;99594.16;126823;1087;102933;-79
2021/08/19 00:52:05;;;;;;;;;;;;;;;15.92;62.05;99597.73;126862;1089;102938;-79
2021/08/19 00:54:54;;;;;;;;;;;;;;;15.92;62.21;99589.84;126729;1087;102962;-79
2021/08/19 00:57:42;;;;;;;;;;;;;;;15.92;62.33;99592.47;126840;1089;102884;-79
2021/08/19 01:00:32;;;;;;;;;;;;;;;15.92;62.84;99597.73;126768;1090;102650;-79
2021/08/19 01:03:19;;;;;;;;;;;;;;;15.88;62.53;99591.83;126833;1087;102962;-78
2021/08/19 01:06:07;;;;;;;;;;;;;;;15.88;62.45;99591.83;126860;1089;102927;-78
2021/08/19 01:08:55;;;;;;;;;;;;;;;15.87;62.64;99598.03;126750;1087;102673;-78
2021/08/19 01:11:43;;;;;;;;;;;;;;;15.87;62.52;99586.67;126847;1090;102873;-78
2021/08/19 01:14:32;;;;;;;;;;;;;;;15.87;62.48;99590.14;126782;1087;103281;-78
2021/08/19 01:17:20;;;;;;;;;;;;;;;15.88;62.97;99597.09;126872;1088;102846;-78
2021/08/19 01:20:08;;;;;;;;;;;;;;;15.84;63.08;99590.34;126770;1090;102921;-78
2021/08/19 01:22:57;;;;;;;;;;;;;;;15.83;62.78;99598.34;126812;1090;102870;-79
2021/08/19 01:25:44;;;;;;;;;;;;;;;15.82;62.89;99592.23;126792;1087;102849;-78
2021/08/19 01:28:32;;;;;;;;;;;;;;;15.81;63.13;99597.59;126835;1087;103109;-78
2021/08/19 01:31:23;;;;;;;;;;;;;;;15.77;63.53;99601.34;126793;1087;102896;-78
2021/08/19 01:34:10;;;;;;;;;;;;;;;15.74;63.44;99605.01;126850;1087;103163;-78
2021/08/19 01:36:58;;;;;;;;;;;;;;;15.71;63.93;99600.80;126720;1087;102861;-78
2021/08/19 01:39:45;;;;;;;;;;;;;;;15.68;63.72;99589.63;126881;1089;102970;-78
2021/08/19 01:42:33;;;;;;;;;;;;;;;15.63;64.10;99592.56;126874;1089;102970;-78
2021/08/19 01:45:21;;;;;;;;;;;;;;;15.60;64.33;99595.36;126846;1088;102854;-78
2021/08/19 01:48:09;;;;;;;;;;;;;;;15.56;64.19;99596.47;126842;1090;102960;-78
2021/08/19 01:50:57;;;;;;;;;;;;;;;15.51;64.35;99593.30;126747;1088;102962;-78
2021/08/19 01:53:46;;;;;;;;;;;;;;;15.48;64.28;99588.23;126856;1087;103010;-78
2021/08/19 01:56:34;;;;;;;;;;;;;;;15.44;64.78;99592.00;126810;1089;103306;-78
2021/08/19 01:59:23;;;;;;;;;;;;;;;15.40;64.55;99593.11;126866;1090;102981;-79
2021/08/19 02:02:10;;;;;;;;;;;;;;;15.35;64.79;99592.56;126774;1090;102871;-79
2021/08/19 02:04:58;;;;;;;;;;;;;;;15.34;65.10;99590.88;126842;1087;102889;-80
2021/08/19 02:07:45;;;;;;;;;;;;;;;15.32;65.36;99603.27;126752;1087;102879;-78
2021/08/19 02:10:33;;;;;;;;;;;;;;;15.31;65.68;99597.16;126837;1090;102927;-78
2021/08/19 02:13:21;;;;;;;;;;;;;;;15.29;65.44;99601.67;126798;1090;102866;-78
2021/08/19 02:16:08;;;;;;;;;;;;;;;15.26;65.79;99603.63;126864;1088;103052;-78
2021/08/19 02:18:56;;;;;;;;;;;;;;;15.25;65.75;99594.89;126800;1089;102680;-78
2021/08/19 02:21:44;;;;;;;;;;;;;;;15.23;65.96;99596.77;126782;1090;102676;-79
2021/08/19 02:24:31;;;;;;;;;;;;;;;15.22;65.86;99597.72;126846;1090;103017;-79
2021/08/19 02:27:19;;;;;;;;;;;;;;;15.19;66.08;99602.32;126782;1088;102852;-79
2021/08/19 02:30:08;;;;;;;;;;;;;;;15.16;67.06;99607.77;126845;1087;103042;-79
2021/08/19 02:32:56;;;;;;;;;;;;;;;15.14;66.76;99612.27;126659;1090;102935;-79
2021/08/19 02:35:43;;;;;;;;;;;;;;;15.14;66.66;99599.98;126928;1089;102907;-79
2021/08/19 02:38:31;;;;;;;;;;;;;;;15.17;66.44;99596.32;126695;1088;102939;-78
2021/08/19 02:41:18;;;;;;;;;;;;;;;15.15;67.21;99599.05;126797;1088;102981;-78
2021/08/19 02:44:06;;;;;;;;;;;;;;;15.13;66.80;99597.45;126771;1088;103041;-78
2021/08/19 02:46:53;;;;;;;;;;;;;;;15.13;66.79;99603.55;126863;1089;102945;-78
2021/08/19 02:49:41;;;;;;;;;;;;;;;15.13;66.97;99602.70;126750;1090;102932;-78
2021/08/19 02:52:29;;;;;;;;;;;;;;;15.11;66.98;99600.17;126887;1090;102847;-78
2021/08/19 02:55:16;;;;;;;;;;;;;;;15.14;66.91;99607.86;126851;1090;103041;-78
2021/08/19 02:58:04;;;;;;;;;;;;;;;15.15;67.02;99601.67;126834;1090;100578;-78
2021/08/19 03:00:52;;;;;;;;;;;;;;;15.13;67.09;99600.92;126829;1087;102889;-78
2021/08/19 03:03:39;;;;;;;;;;;;;;;15.11;67.30;99605.43;126819;1090;102868;-78
2021/08/19 03:06:27;;;;;;;;;;;;;;;15.10;67.07;99601.96;126875;1087;103316;-78
2021/08/19 03:09:14;;;;;;;;;;;;;;;15.07;67.16;99602.12;126812;1088;102863;-78
2021/08/19 03:12:03;;;;;;;;;;;;;;;15.03;67.36;99608.50;126776;1087;103020;-78
2021/08/19 03:14:51;;;;;;;;;;;;;;;15.00;67.46;99610.47;126735;1089;102871;-78
2021/08/19 03:17:38;;;;;;;;;;;;;;;14.95;67.34;99604.66;126865;1090;102871;-78
2021/08/19 03:20:26;;;;;;;;;;;;;;;14.89;67.69;99597.98;126765;1089;102855;-79
2021/08/19 03:23:14;;;;;;;;;;;;;;;14.84;67.81;99607.08;126882;1089;102852;-79
2021/08/19 03:26:01;;;;;;;;;;;;;;;14.79;67.80;99600.33;126783;1089;102978;-79
2021/08/19 03:28:48;;;;;;;;;;;;;;;14.75;68.15;99613.73;126856;1090;103001;-78
2021/08/19 03:31:37;;;;;;;;;;;;;;;14.72;68.65;99617.39;126878;1087;103014;-78
2021/08/19 03:34:25;;;;;;;;;;;;;;;14.67;68.26;99614.17;126782;1090;102856;-78
2021/08/19 03:37:13;;;;;;;;;;;;;;;14.62;69.49;99612.77;126836;1089;101256;-77
2021/08/19 03:40:01;;;;;;;;;;;;;;;14.57;69.00;99607.79;126776;1090;102921;-78
2021/08/19 03:42:48;;;;;;;;;;;;;;;14.55;68.71;99607.04;126858;1090;102962;-78
2021/08/19 03:45:37;;;;;;;;;;;;;;;14.50;69.08;99609.06;126737;1089;102977;-78
2021/08/19 03:48:24;;;;;;;;;;;;;;;14.47;69.98;99604.00;126844;1087;102924;-79
2021/08/19 03:51:12;;;;;;;;;;;;;;;14.47;69.05;99609.25;126734;1090;102840;-78
2021/08/19 03:54:01;;;;;;;;;;;;;;;14.50;69.20;99601.19;126831;1087;102850;-78
2021/08/19 03:57:12;;;;;;;;;;;;;;;14.53;69.25;99597.54;126748;1089;102863;-78
2021/08/19 04:00:00;;;;;;;;;;;;;;;14.57;69.17;99606.95;126875;1090;102846;-78
2021/08/19 04:02:57;;;;;;;;;;;;;;;14.59;69.22;99607.70;126790;1087;102931;-78
2021/08/19 04:05:46;;;;;;;;;;;;;;;14.61;69.21;99605.83;126870;1088;102876;-78
2021/08/19 04:08:43;;;;;;;;;;;;;;;14.66;69.43;99609.02;126855;1087;102895;-79
2021/08/19 04:11:31;;;;;;;;;;;;;;;14.72;68.98;99599.02;126805;1087;102876;-79
2021/08/19 04:14:20;;;;;;;;;;;;;;;14.72;69.48;99606.02;126775;1090;102962;-79
2021/08/19 04:17:14;;;;;;;;;;;;;;;14.72;69.06;99598.14;126861;1087;102980;-79
2021/08/19 04:20:02;;;;;;;;;;;;;;;14.75;69.08;99604.08;126878;1090;101766;-79
2021/08/19 04:22:51;;;;;;;;;;;;;;;14.81;69.12;99597.61;126945;1087;103323;-79
2021/08/19 04:25:40;;;;;;;;;;;;;;;14.86;68.93;99599.95;126853;1088;102856;-79
2021/08/19 04:28:27;;;;;;;;;;;;;;;14.94;68.92;99600.35;126602;1089;102855;-79
2021/08/19 04:31:15;;;;;;;;;;;;;;;15.02;68.89;99593.69;126917;1087;102860;-79
2021/08/19 04:34:03;;;;;;;;;;;;;;;15.15;68.58;99600.83;126794;1089;102956;-79
2021/08/19 04:36:55;;;;;;;;;;;;;;;15.20;68.22;99594.34;126959;1088;102882;-79
2021/08/19 04:39:43;;;;;;;;;;;;;;;15.24;68.46;99589.73;126728;1090;102903;-79
2021/08/19 04:42:31;;;;;;;;;;;;;;;15.48;68.50;99582.14;126915;1087;103307;-79
2021/08/19 04:45:19;;;;;;;;;;;;;;;16.08;67.05;99593.17;126757;1088;102807;-80
2021/08/19 04:48:07;;;;;;;;;;;;;;;17.22;65.19;99592.48;126913;1088;102858;-79
2021/08/19 04:50:54;;;;;;;;;;;;;;;19.00;64.02;99570.58;126773;1087;102962;-79
2021/08/19 04:53:42;;;;;;;;;;;;;;;20.75;60.62;99580.14;126839;1088;102971;-79
2021/08/19 04:56:36;;;;;;;;;;;;;;;22.31;58.20;99583.20;126879;1087;102682;-79
2021/08/19 04:59:23;;;;;;;;;;;;;;;23.69;54.30;99586.20;126837;1088;103050;-79
2021/08/19 05:02:11;;;;;;;;;;;;;;;24.76;52.22;99589.73;126833;1089;102994;-79
2021/08/19 05:04:59;;;;;;;;;;;;;;;25.78;50.03;99589.81;126834;1087;102885;-79
2021/08/19 05:07:46;;;;;;;;;;;;;;;26.50;48.00;99580.25;126916;1089;102794;-80
2021/08/19 05:10:34;;;;;;;;;;;;;;;27.43;46.47;99579.75;126857;1087;102860;-80
2021/08/19 05:13:21;;;;;;;;;;;;;;;28.28;44.87;99571.78;126819;1088;102893;-80
2021/08/19 05:16:09;;;;;;;;;;;;;;;28.95;43.07;99555.78;126834;1090;102852;-80
2021/08/19 05:18:57;;;;;;;;;;;;;;;29.01;41.46;99554.20;126873;1090;102854;-80
2021/08/19 05:21:44;;;;;;;;;;;;;;;28.66;40.28;99561.89;126819;1088;102850;-80
2021/08/19 05:24:32;;;;;;;;;;;;;;;29.07;40.05;99561.50;126932;1088;103074;-81
2021/08/19 05:27:19;;;;;;;;;;;;;;;29.36;39.61;99574.93;126824;1090;103351;-80
2021/08/19 05:30:09;;;;;;;;;;;;;;;29.71;38.33;99580.56;127010;1090;102915;-81
2021/08/19 05:32:56;;;;;;;;;;;;;;;29.67;38.46;99579.28;127001;1090;102843;-80
2021/08/19 05:35:44;;;;;;;;;;;;;;;30.72;37.71;99576.88;126932;1088;102651;-80
2021/08/19 05:38:31;;;;;;;;;;;;;;;31.04;36.48;99578.11;126960;1087;102666;-80
2021/08/19 05:41:19;;;;;;;;;;;;;;;31.36;35.26;99565.89;126804;1090;102849;-80
2021/08/19 05:44:06;;;;;;;;;;;;;;;30.05;34.70;99569.19;126994;1087;102994;-80
2021/08/19 05:46:54;;;;;;;;;;;;;;;28.51;36.56;99571.75;126846;1090;102853;-80
2021/08/19 05:49:42;;;;;;;;;;;;;;;28.58;37.05;99570.87;126895;1087;102873;-80
2021/08/19 05:52:29;;;;;;;;;;;;;;;27.42;36.75;99569.21;126880;1089;101457;-80
2021/08/19 05:55:17;;;;;;;;;;;;;;;26.05;39.00;99570.02;126867;1087;102967;-80
2021/08/19 05:58:04;;;;;;;;;;;;;;;24.65;40.38;99572.17;126865;1088;102988;-80
2021/08/19 06:00:52;;;;;;;;;;;;;;;23.74;42.20;99574.14;126943;1087;103003;-80
2021/08/19 06:03:40;;;;;;;;;;;;;;;23.32;43.27;99581.73;126840;1090;102939;-80
2021/08/19 06:06:27;;;;;;;;;;;;;;;23.41;43.55;99572.88;126998;1087;102851;-79
2021/08/19 06:09:16;;;;;;;;;;;;;;;24.28;43.35;99582.16;126991;1090;102377;-80
2021/08/19 06:12:04;;;;;;;;;;;;;;;25.11;42.45;99575.48;126882;1090;102843;-80
2021/08/19 06:14:51;;;;;;;;;;;;;;;25.27;41.57;99574.73;126999;1090;101403;-80
2021/08/19 06:17:39;;;;;;;;;;;;;;;25.04;41.80;99568.28;126848;1087;102890;-80
2021/08/19 06:20:27;;;;;;;;;;;;;;;24.51;42.38;99572.72;126971;1090;102906;-80
2021/08/19 06:23:15;;;;;;;;;;;;;;;23.86;43.22;99571.24;126916;1087;103387;-80
2021/08/19 06:26:03;;;;;;;;;;;;;;;23.25;43.96;99567.35;126850;1090;102954;-80
2021/08/19 06:28:50;;;;;;;;;;;;;;;22.79;44.91;99576.13;126863;1090;102964;-80
2021/08/19 06:31:38;;;;;;;;;;;;;;;22.40;45.55;99565.56;126828;1090;102844;-79
2021/08/19 06:34:26;;;;;;;;;;;;;;;21.99;45.90;99580.77;127019;1089;102849;-79
2021/08/19 06:37:14;;;;;;;;;;;;;;;21.66;47.16;99571.35;126636;1087;102941;-80
2021/08/19 06:40:02;;;;;;;;;;;;;;;21.45;47.64;99583.03;126948;1090;102916;-79
2021/08/19 06:42:50;;;;;;;;;;;;;;;21.25;48.08;99582.95;126689;1090;103809;-79
2021/08/19 06:45:38;;;;;;;;;;;;;;;21.03;48.90;99581.30;126873;1087;102877;-79
2021/08/19 06:48:26;;;;;;;;;;;;;;;20.73;49.06;99583.90;126840;1087;102850;-80
2021/08/19 06:51:15;;;;;;;;;;;;;;;20.50;49.89;99584.03;126915;1089;102847;-79
2021/08/19 06:54:03;;;;;;;;;;;;;;;20.98;50.42;99583.48;126754;1089;102859;-79
2021/08/19 06:56:52;;;;;;;;;;;;;;;22.06;48.58;99578.42;126907;1087;102848;-79
2021/08/19 06:59:39;;;;;;;;;;;;;;;22.12;48.29;99577.89;126693;1090;102888;-79
2021/08/19 07:02:26;;;;;;;;;;;;;;;22.12;47.84;99577.89;126912;1089;102881;-79
2021/08/19 07:05:14;;;;;;;;;;;;;;;22.74;47.78;99571.25;126927;1087;103373;-80
2021/08/19 07:08:03;;;;;;;;;;;;;;;23.29;46.91;99574.05;126808;1087;102875;-79
2021/08/19 07:10:50;;;;;;;;;;;;;;;23.65;46.38;99572.36;126856;1088;102889;-79
2021/08/19 07:13:39;;;;;;;;;;;;;;;24.01;45.32;99575.06;126782;1087;102856;-79
2021/08/19 07:16:27;;;;;;;;;;;;;;;24.74;44.77;99567.72;126953;1090;102814;-79
2021/08/19 07:19:14;;;;;;;;;;;;;;;25.82;43.44;99571.62;126816;1090;102865;-79
2021/08/19 07:22:02;;;;;;;;;;;;;;;26.85;41.20;99570.19;126890;1089;102850;-80
2021/08/19 07:24:50;;;;;;;;;;;;;;;27.14;40.03;99561.63;126777;1090;102890;-80
2021/08/19 07:27:38;;;;;;;;;;;;;;;27.03;40.00;99564.66;126953;1090;103042;-80
2021/08/19 07:30:26;;;;;;;;;;;;;;;27.02;39.26;99563.00;126862;1088;103058;-79
2021/08/19 07:33:17;;;;;;;;;;;;;;;26.83;38.86;99556.15;126956;1089;103124;-79
2021/08/19 07:36:05;;;;;;;;;;;;;;;26.74;39.23;99563.34;126866;1088;102927;-79
2021/08/19 07:38:52;;;;;;;;;;;;;;;26.82;39.58;99567.03;126935;1089;102855;-79
2021/08/19 07:41:40;;;;;;;;;;;;;;;26.99;39.20;99558.80;126909;1090;102910;-80
2021/08/19 07:44:28;;;;;;;;;;;;;;;26.98;38.80;99557.13;126781;1090;102889;-79
2021/08/19 07:47:16;;;;;;;;;;;;;;;26.57;38.88;99569.74;126981;1087;103020;-79
2021/08/19 07:50:07;;;;;;;;;;;;;;;26.74;39.13;99582.06;126892;1087;102927;-79
2021/08/19 07:52:54;;;;;;;;;;;;;;;26.97;38.71;99578.70;127008;1087;102987;-79
2021/08/19 07:55:44;;;;;;;;;;;;;;;26.71;38.62;99577.05;126783;1090;102897;-80
2021/08/19 07:58:32;;;;;;;;;;;;;;;26.75;38.42;99577.55;126961;1090;102998;-80
2021/08/19 08:01:20;;;;;;;;;;;;;;;27.38;38.30;99577.59;126844;1085;102946;-79
2021/08/19 08:04:09;;;;;;;;;;;;;;;28.78;36.25;99589.14;127017;1090;103319;-80
2021/08/19 08:06:56;;;;;;;;;;;;;;;29.72;34.91;99571.48;126748;1090;102877;-80
2021/08/19 08:09:44;;;;;;;;;;;;;;;30.82;32.80;99568.44;126862;1089;102988;-80
2021/08/19 08:12:31;;;;;;;;;;;;;;;31.21;33.29;99560.63;126738;1090;103406;-80
2021/08/19 08:15:19;;;;;;;;;;;;;;;31.58;32.09;99569.30;126895;1090;101158;-80
2021/08/19 08:18:11;;;;;;;;;;;;;;;31.41;32.44;99567.97;126867;1088;102876;-80
2021/08/19 08:21:01;;;;;;;;;;;;;;;31.06;31.64;99576.08;126879;1090;102860;-80
2021/08/19 08:23:49;;;;;;;;;;;;;;;30.17;32.59;99580.28;126871;1089;102888;-80
2021/08/19 08:26:36;;;;;;;;;;;;;;;29.15;33.50;99583.74;126811;1090;102833;-80
2021/08/19 08:29:25;;;;;;;;;;;;;;;28.44;34.76;99571.66;126912;1088;102875;-80
2021/08/19 08:32:13;;;;;;;;;;;;;;;27.77;35.40;99574.09;126830;1090;102988;-80
2021/08/19 08:35:00;;;;;;;;;;;;;;;27.06;36.69;99577.70;126894;1086;101932;-80
2021/08/19 08:37:49;;;;;;;;;;;;;;;26.39;37.43;99599.33;126781;1087;103030;-80
2021/08/19 08:40:38;;;;;;;;;;;;;;;25.71;38.42;99583.46;126903;1090;102854;-79
2021/08/19 08:43:28;;;;;;;;;;;;;;;25.29;39.87;99589.58;126896;1089;103085;-80
2021/08/19 08:46:18;;;;;;;;;;;;;;;25.01;39.83;99580.11;126872;1090;102940;-80
2021/08/19 08:49:09;;;;;;;;;;;;;;;24.70;40.71;99590.36;126860;1089;103182;-81
2021/08/19 08:51:58;;;;;;;;;;;;;;;24.59;41.62;99594.10;126936;1088;102718;-81
2021/08/19 08:54:50;;;;;;;;;;;;;;;24.35;41.81;99593.91;126760;1089;102890;-80
2021/08/19 08:57:38;;;;;;;;;;;;;;;24.03;42.47;99597.06;126957;1087;102875;-80
2021/08/19 09:00:25;;;;;;;;;;;;;;;23.70;42.82;99596.73;127005;1087;103071;-80
2021/08/19 09:03:30;;;;;;;;;;;;;;;23.40;43.64;99603.14;126975;1087;102997;-80
2021/08/19 09:06:33;;;;;;;;;;;;;;;23.28;44.43;99603.47;126928;1087;102657;-80
2021/08/19 09:09:25;;;;;;;;;;;;;;;23.22;44.49;99604.89;126825;1090;102960;-80
2021/08/19 09:12:16;;;;;;;;;;;;;;;23.47;44.30;99601.55;127005;1090;102875;-81
2021/08/19 09:15:07;;;;;;;;;;;;;;;23.39;44.53;99592.64;126953;1089;102958;-80
2021/08/19 09:17:56;;;;;;;;;;;;;;;23.23;45.02;99603.07;126942;1090;102892;-80
2021/08/19 09:20:44;;;;;;;;;;;;;;;22.93;45.63;99588.17;126771;1090;103001;-80
2021/08/19 09:23:31;;;;;;;;;;;;;;;22.73;46.05;99606.80;127087;1089;102950;-80
2021/08/19 09:26:26;;;;;;;;;;;;;;;22.66;45.53;99595.07;126903;1089;102878;-79
2021/08/19 09:29:16;;;;;;;;;;;;;;;22.77;45.80;99599.37;127081;1090;102951;-79
2021/08/19 09:32:12;;;;;;;;;;;;;;;23.09;45.80;99591.07;126884;1087;102924;-79
2021/08/19 09:35:12;;;;;;;;;;;;;;;23.28;45.67;99592.82;126945;1087;103158;-79
2021/08/19 09:38:13;;;;;;;;;;;;;;;23.83;45.16;99592.85;126772;1088;103021;-79
2021/08/19 09:41:05;;;;;;;;;;;;;;;23.78;44.97;99595.97;126997;1087;102937;-80
2021/08/19 09:43:54;;;;;;;;;;;;;;;23.72;44.84;99599.24;126874;1090;102872;-80
2021/08/19 09:46:41;;;;;;;;;;;;;;;23.86;44.98;99601.38;127015;1087;102847;-80
2021/08/19 09:49:30;;;;;;;;;;;;;;;24.06;44.17;99586.97;126770;1087;102853;-79
2021/08/19 09:52:17;;;;;;;;;;;;;;;23.97;43.98;99589.69;127020;1087;102955;-81
2021/08/19 09:55:22;;;;;;;;;;;;;;;23.68;44.31;99595.17;126905;1090;102705;-79
2021/08/19 09:58:27;;;;;;;;;;;;;;;23.74;44.62;99586.61;127020;1087;102862;-79
2021/08/19 10:01:14;;;;;;;;;;;;;;;23.48;44.28;99595.25;126869;1090;102867;-79
2021/08/19 10:04:02;;;;;;;;;;;;;;;23.16;44.99;99592.16;126774;1089;103017;-79
2021/08/19 10:06:50;;;;;;;;;;;;;;;23.31;45.43;99597.84;126850;1088;103140;-79
2021/08/19 10:09:38;;;;;;;;;;;;;;;23.80;44.76;99607.31;126798;1090;103031;-81
2021/08/19 10:12:25;;;;;;;;;;;;;;;24.46;44.40;99595.52;126954;1087;103025;-79
2021/08/19 10:15:14;;;;;;;;;;;;;;;25.36;43.06;99594.30;126704;1090;102891;-80
2021/08/19 10:18:02;;;;;;;;;;;;;;;25.95;42.04;99589.86;126877;1089;102888;-81
2021/08/19 10:20:58;;;;;;;;;;;;;;;26.39;41.69;99593.98;126875;1089;102843;-81
2021/08/19 10:23:47;;;;;;;;;;;;;;;26.59;40.76;99602.50;126941;1090;102900;-81
2021/08/19 10:26:34;;;;;;;;;;;;;;;26.76;39.58;99593.46;126775;1089;103013;-79
2021/08/19 10:29:40;;;;;;;;;;;;;;;26.95;39.72;99591.42;126949;1089;102956;-82
2021/08/19 10:32:32;;;;;;;;;;;;;;;26.60;39.55;99589.96;126827;1090;103371;-82
2021/08/19 10:35:25;;;;;;;;;;;;;;;26.06;40.19;99601.09;126946;1087;102931;-83
2021/08/19 10:38:23;;;;;;;;;;;;;;;25.58;40.52;99599.90;126759;1089;102900;-82
2021/08/19 10:41:44;;;;;;;;;;;;;;;25.05;41.09;99608.14;126918;1088;102849;-82
2021/08/19 10:44:49;;;;;;;;;;;;;;;24.42;41.98;99605.65;126822;1090;102157;-82
2021/08/19 10:47:38;;;;;;;;;;;;;;;23.96;42.48;99593.34;126958;1089;102960;-82
2021/08/19 10:50:39;;;;;;;;;;;;;;;23.55;43.17;99600.84;126723;1089;102785;-82
2021/08/19 10:53:29;;;;;;;;;;;;;;;23.39;44.29;99588.16;126848;1089;102853;-81
2021/08/19 10:56:35;;;;;;;;;;;;;;;23.45;44.52;99590.22;126828;1090;102897;-81
2021/08/19 10:59:27;;;;;;;;;;;;;;;23.82;44.58;99597.34;126981;1090;101078;-81
2021/08/19 11:02:34;;;;;;;;;;;;;;;24.36;43.65;99582.25;126854;1087;102897;-81
2021/08/19 11:05:25;;;;;;;;;;;;;;;24.34;43.04;99581.58;126961;1090;102845;-81
2021/08/19 11:08:13;;;;;;;;;;;;;;;24.19;43.18;99604.38;126697;1089;102902;-81
2021/08/19 11:11:00;;;;;;;;;;;;;;;23.92;43.09;99582.16;126939;1089;102863;-81
2021/08/19 11:13:48;;;;;;;;;;;;;;;23.64;43.79;99593.80;126822;1090;101581;-81
2021/08/19 11:16:36;;;;;;;;;;;;;;;23.37;44.59;99591.96;126922;1090;103032;-81
2021/08/19 11:19:25;;;;;;;;;;;;;;;22.96;44.76;99593.20;126870;1088;102898;-81
2021/08/19 11:22:21;;;;;;;;;;;;;;;22.59;45.60;99608.06;126825;1088;103027;-81
2021/08/19 11:25:09;;;;;;;;;;;;;;;22.24;45.91;99613.10;126967;1088;102856;-81
2021/08/19 11:28:06;;;;;;;;;;;;;;;21.91;46.62;99609.00;126718;1090;102997;-81
2021/08/19 11:30:54;;;;;;;;;;;;;;;21.70;47.33;99620.52;126957;1089;103444;-81
2021/08/19 11:33:42;;;;;;;;;;;;;;;21.53;47.71;99623.81;126859;1088;102873;-82
2021/08/19 11:36:34;;;;;;;;;;;;;;;21.33;48.18;99622.90;126935;1090;102922;-81
2021/08/19 11:39:26;;;;;;;;;;;;;;;21.19;48.29;99619.75;126844;1087;102962;-81
2021/08/19 11:42:14;;;;;;;;;;;;;;;21.08;48.82;99629.45;126920;1090;102149;-81
2021/08/19 11:45:25;;;;;;;;;;;;;;;21.03;49.49;99625.52;126835;1087;102955;-81
2021/08/19 11:48:13;;;;;;;;;;;;;;;21.08;50.08;99618.84;126955;1090;102917;-81
2021/08/19 11:51:02;;;;;;;;;;;;;;;21.19;50.22;99617.10;126833;1089;102778;-81
2021/08/19 11:53:54;;;;;;;;;;;;;;;21.28;49.79;99625.13;126934;1089;102881;-81
2021/08/19 11:56:43;;;;;;;;;;;;;;;21.34;50.29;99618.44;126857;1089;102981;-81
2021/08/19 11:59:30;;;;;;;;;;;;;;;21.34;50.25;99621.92;126928;1090;103011;-81
2021/08/19 12:02:18;;;;;;;;;;;;;;;21.34;50.13;99626.39;126829;1089;103691;-82
2021/08/19 12:05:10;;;;;;;;;;;;;;;21.26;51.09;99621.77;126942;1088;102997;-82
2021/08/19 12:07:58;;;;;;;;;;;;;;;21.12;50.69;99624.72;126908;1087;103008;-81
2021/08/19 12:10:45;;;;;;;;;;;;;;;21.02;50.81;99619.38;126916;1087;103342;-81
2021/08/19 12:13:33;;;;;;;;;;;;;;;20.98;50.87;99623.24;126911;1090;103055;-80
2021/08/19 12:16:22;;;;;;;;;;;;;;;20.94;51.53;99627.13;126707;1090;103093;-81
2021/08/19 12:19:13;;;;;;;;;;;;;;;20.89;51.14;99631.16;126900;1087;102937;-81
2021/08/19 12:22:01;;;;;;;;;;;;;;;20.81;51.11;99637.92;126873;1087;103347;-81
2021/08/19 12:24:48;;;;;;;;;;;;;;;20.73;51.28;99636.90;126935;1087;101806;-81
2021/08/19 12:27:36;;;;;;;;;;;;;;;20.67;51.63;99645.38;126822;1087;102869;-81
2021/08/19 12:30:23;;;;;;;;;;;;;;;20.59;51.97;99643.34;126949;1088;102964;-81
2021/08/19 12:33:11;;;;;;;;;;;;;;;20.53;51.77;99650.97;126771;1087;102846;-81
2021/08/19 12:36:15;;;;;;;;;;;;;;;20.48;52.05;99648.71;126941;1088;101360;-81
2021/08/19 12:39:36;;;;;;;;;;;;;;;20.44;52.10;99655.20;126849;1090;102892;-81
2021/08/19 12:42:32;;;;;;;;;;;;;;;20.42;52.31;99647.39;126912;1089;102955;-80
2021/08/19 12:45:23;;;;;;;;;;;;;;;20.39;52.24;99652.91;126872;1087;102853;-81
2021/08/19 12:48:11;;;;;;;;;;;;;;;20.38;52.51;99659.17;126932;1087;102847;-80
2021/08/19 12:51:16;;;;;;;;;;;;;;;20.38;52.69;99653.88;126888;1090;102937;-81
2021/08/19 12:54:05;;;;;;;;;;;;;;;20.40;52.32;99659.89;126912;1090;102843;-81
2021/08/19 12:56:58;;;;;;;;;;;;;;;20.43;52.39;99657.02;126832;1090;102827;-81
2021/08/19 12:59:45;;;;;;;;;;;;;;;20.48;52.51;99657.50;126944;1089;102988;-81
2021/08/19 13:02:33;;;;;;;;;;;;;;;20.58;52.15;99656.72;126772;1090;102978;-81
2021/08/19 13:05:24;;;;;;;;;;;;;;;20.69;52.29;99660.17;126978;1088;102902;-81
2021/08/19 13:08:12;;;;;;;;;;;;;;;20.81;51.61;99647.68;126813;1087;102981;-82
2021/08/19 13:11:00;;;;;;;;;;;;;;;20.94;51.79;99653.64;126906;1089;101628;-81
2021/08/19 13:13:49;;;;;;;;;;;;;;;21.01;51.15;99657.47;126967;1088;102675;-82
2021/08/19 13:16:37;;;;;;;;;;;;;;;21.08;51.00;99658.62;126901;1090;102865;-81
2021/08/19 13:19:27;;;;;;;;;;;;;;;21.17;50.69;99661.45;126951;1090;102855;-82
2021/08/19 13:22:16;;;;;;;;;;;;;;;21.25;50.44;99657.22;126910;1087;101334;-82
2021/08/19 13:25:03;;;;;;;;;;;;;;;21.28;50.47;99669.38;126935;1090;102767;-82
2021/08/19 13:27:51;;;;;;;;;;;;;;;21.30;50.39;99665.61;126907;1089;102911;-82
2021/08/19 13:30:38;;;;;;;;;;;;;;;21.31;50.50;99667.28;126959;1090;103088;-82
2021/08/19 13:33:26;;;;;;;;;;;;;;;21.30;49.91;99667.42;126879;1089;102888;-82
2021/08/19 13:36:13;;;;;;;;;;;;;;;21.27;50.14;99681.80;126984;1087;103157;-82
2021/08/19 13:39:01;;;;;;;;;;;;;;;21.20;49.95;99677.96;126921;1089;100960;-81
2021/08/19 13:41:49;;;;;;;;;;;;;;;21.18;49.89;99676.38;126820;1090;102947;-81
2021/08/19 13:44:37;;;;;;;;;;;;;;;21.10;49.97;99683.19;126736;1090;102924;-81
2021/08/19 13:47:25;;;;;;;;;;;;;;;21.08;49.92;99677.18;126873;1090;102917;-81
2021/08/19 13:50:12;;;;;;;;;;;;;;;21.03;49.69;99679.39;126945;1089;103023;-81
2021/08/19 13:53:00;;;;;;;;;;;;;;;21.03;50.25;99686.50;126954;1088;103110;-82
2021/08/19 13:55:47;;;;;;;;;;;;;;;21.00;49.91;99676.97;127013;1087;102878;-81
2021/08/19 13:58:35;;;;;;;;;;;;;;;21.00;50.19;99682.27;126828;1087;102881;-81
2021/08/19 14:01:23;;;;;;;;;;;;;;;20.96;49.99;99683.51;127036;1089;100424;-81
2021/08/19 14:04:10;;;;;;;;;;;;;;;20.94;50.34;99688.10;126915;1088;102896;-81
2021/08/19 14:06:59;;;;;;;;;;;;;;;20.93;50.37;99686.42;126844;1089;102939;-81
2021/08/19 14:09:47;;;;;;;;;;;;;;;20.85;50.07;99686.23;126894;1087;103189;-81
2021/08/19 14:12:35;;;;;;;;;;;;;;;20.80;50.05;99683.11;126964;1090;102875;-82
2021/08/19 14:15:22;;;;;;;;;;;;;;;20.78;50.12;99679.75;126877;1088;102947;-81
2021/08/19 14:18:10;;;;;;;;;;;;;;;20.78;50.24;99680.59;127011;1090;102946;-82
2021/08/19 14:20:57;;;;;;;;;;;;;;;20.85;50.46;99672.98;126686;1090;102847;-81